Time;durP1;ratioP1;P1;durP2;ratioP2;P2;SDS_P1;SDS_P2;PMS_P1;PMS_P2;Temp;Humidity;BMP_temperature;BMP_pressure;BME280_temperature;BME280_humidity;BME280_pressure;Samples;Min_cycle;Max_cycle;Signal;HPM_P1;HPM_P2
2023/10/09 00:02:09;;;;;;;;;18.50;14.75;;;;;19.04;72.88;101861.72;6311355;22;45790;-74
2023/10/09 00:04:44;;;;;;;;;21.75;21.75;;;;;18.94;73.12;101850.47;6340315;22;45250;-74
2023/10/09 00:07:10;;;;;;;;;23.00;18.25;;;;;18.92;73.13;101862.34;6311706;22;45279;-74
2023/10/09 00:09:46;;;;;;;;;22.00;21.75;;;;;19.15;72.92;101899.97;6340187;22;45593;-74
2023/10/09 00:12:16;;;;;;;;;21.75;19.50;;;;;19.26;73.67;101915.63;6337978;22;45479;-74
2023/10/09 00:14:47;;;;;;;;;14.75;14.50;;;;;19.09;72.99;101892.13;6311321;22;45479;-74
2023/10/09 00:19:39;;;;;;;;;22.75;20.50;;;;;19.05;73.50;101880.59;6340046;22;45365;-74
2023/10/09 00:22:09;;;;;;;;;20.75;18.75;;;;;18.91;73.47;101866.00;6311981;22;45446;-74
2023/10/09 00:24:34;;;;;;;;;20.75;18.00;;;;;19.05;73.82;101891.41;6311542;22;45292;-74
2023/10/09 00:27:12;;;;;;;;;20.75;20.50;;;;;19.01;73.40;101881.72;6311775;22;45346;-74
2023/10/09 00:29:46;;;;;;;;;21.50;19.50;;;;;18.90;73.50;101869.69;6339900;22;45396;-74
2023/10/09 00:32:28;;;;;;;;;22.50;19.25;;;;;19.17;73.86;101922.41;6311413;22;46017;-74
2023/10/09 00:34:59;;;;;;;;;19.25;17.75;;;;;18.99;73.91;101897.13;6311416;22;45553;-74
2023/10/09 00:37:33;;;;;;;;;22.50;21.75;;;;;18.99;73.58;101899.84;6310978;22;45439;-74
2023/10/09 00:40:05;;;;;;;;;19.25;18.00;;;;;19.01;73.97;101903.38;6339652;22;46067;-74
2023/10/09 00:42:38;;;;;;;;;20.75;17.75;;;;;18.77;74.01;101859.41;6310249;22;45288;-74
2023/10/09 00:45:04;;;;;;;;;23.00;20.75;;;;;18.80;73.88;101870.06;6339835;22;45192;-74
2023/10/09 00:47:38;;;;;;;;;19.25;18.00;;;;;18.80;73.97;101869.22;6340180;22;45436;-74
2023/10/09 00:53:01;;;;;;;;;3.00;2.00;;;;;18.72;73.97;101861.47;6340115;22;45574;-74
2023/10/09 00:55:45;;;;;;;;;14.00;14.00;;;;;19.05;74.04;101907.66;6339720;22;45243;-73
2023/10/09 00:58:19;;;;;;;;;17.00;16.25;;;;;18.69;74.04;101848.09;6311287;22;45369;-74
2023/10/09 01:00:47;;;;;;;;;15.50;15.00;;;;;18.79;74.12;101865.59;6339493;22;45309;-74
2023/10/09 01:05:51;;;;;;;;;19.25;15.00;;;;;18.66;74.17;101834.72;6339850;22;45375;-74
2023/10/09 01:08:25;;;;;;;;;14.50;13.75;;;;;18.58;73.92;101828.81;6311325;22;45419;-74
2023/10/09 01:10:56;;;;;;;;;12.50;12.50;;;;;18.94;74.35;101879.38;6339189;22;45441;-74
2023/10/09 01:16:20;;;;;;;;;13.75;13.50;;;;;18.79;74.07;101854.78;6339949;22;45432;-74
2023/10/09 01:18:51;;;;;;;;;12.25;11.50;;;;;18.66;73.94;101818.47;6310834;22;45551;-73
2023/10/09 01:21:26;;;;;;;;;15.25;14.25;;;;;18.60;74.23;101810.69;6339614;22;45474;-74
2023/10/09 01:26:39;;;;;;;;;17.00;13.75;;;;;18.56;74.31;101807.28;6339967;22;45411;-74
2023/10/09 01:29:10;;;;;;;;;12.25;11.75;;;;;18.54;74.09;101808.28;6337143;22;45848;-74
2023/10/09 01:31:43;;;;;;;;;15.00;12.00;;;;;18.60;73.87;101813.41;6339317;22;46219;-74
2023/10/09 01:34:09;;;;;;;;;13.50;12.25;;;;;18.58;73.98;101818.88;6337544;22;45291;-74
2023/10/09 01:36:39;;;;;;;;;13.25;13.00;;;;;18.69;74.09;101831.84;6311249;22;45269;-74
2023/10/09 01:39:21;;;;;;;;;12.00;12.00;;;;;18.46;74.39;101793.31;6311225;22;45425;-74
2023/10/09 01:41:57;;;;;;;;;;;;;;;;;;;;;
2023/10/09 01:44:52;;;;;;;;;;;;;;;;;;;;;
2023/10/09 01:47:18;;;;;;;;;15.75;13.25;;;;;18.71;73.87;101846.22;6335187;22;45436;-74
2023/10/09 01:49:46;;;;;;;;;10.25;9.25;;;;;18.77;74.27;101853.13;6337173;22;45358;-74
2023/10/09 01:52:23;;;;;;;;;16.50;13.50;;;;;18.49;74.17;101805.78;6339321;22;46201;-74
2023/10/09 01:54:51;;;;;;;;;11.75;10.50;;;;;18.50;74.30;101802.16;6311090;22;46209;-74
2023/10/09 01:57:22;;;;;;;;;2.25;1.00;;;;;18.57;74.10;101827.06;6310591;22;45414;-73
2023/10/09 01:59:49;;;;;;;;;11.50;8.75;;;;;18.60;73.96;101832.31;6338926;22;45188;-74
2023/10/09 02:02:26;;;;;;;;;13.50;10.75;;;;;18.27;73.82;101776.22;6311061;22;47095;-74
2023/10/09 02:07:44;;;;;;;;;11.00;9.00;;;;;18.39;73.86;101799.94;6340754;22;45320;-74
2023/10/09 02:13:06;;;;;;;;;11.00;10.50;;;;;18.31;73.74;101781.44;6340446;22;45903;-74
2023/10/09 02:15:51;;;;;;;;;9.25;7.75;;;;;18.49;73.77;101811.19;6311482;22;45278;-73
2023/10/09 02:26:08;;;;;;;;;8.25;7.75;;;;;18.38;73.62;101810.88;6340876;22;45330;-74
2023/10/09 02:28:48;;;;;;;;;;;;;;;;;;;;;
2023/10/09 02:31:33;;;;;;;;;;;;;;;;;;;;;
2023/10/09 02:34:00;;;;;;;;;9.25;7.50;;;;;18.38;74.06;101814.44;6339031;22;75143;-74
2023/10/09 02:36:28;;;;;;;;;11.00;10.50;;;;;18.09;73.92;101761.78;6312134;22;45338;-73
2023/10/09 02:39:01;;;;;;;;;9.50;9.50;;;;;18.32;74.12;101801.22;6339146;22;45385;-74
2023/10/09 02:41:30;;;;;;;;;10.25;9.00;;;;;18.18;73.96;101777.56;6340651;22;45309;-74
2023/10/09 02:44:04;;;;;;;;;10.50;8.25;;;;;18.24;74.04;101788.09;6339450;22;45275;-74
2023/10/09 02:46:30;;;;;;;;;8.50;7.50;;;;;18.12;74.16;101773.31;6312302;22;45263;-74
2023/10/09 02:48:57;;;;;;;;;10.25;8.75;;;;;18.16;73.83;101774.06;6312913;22;45374;-74
2023/10/09 02:51:41;;;;;;;;;10.75;9.50;;;;;18.07;74.09;101761.84;6340474;22;45387;-74
2023/10/09 02:54:07;;;;;;;;;12.00;11.00;;;;;18.25;73.87;101797.06;6340292;22;45379;-74
2023/10/09 02:56:42;;;;;;;;;10.50;10.50;;;;;18.14;74.01;101782.25;6339991;22;45277;-74
2023/10/09 02:59:12;;;;;;;;;13.50;10.00;;;;;18.15;74.02;101775.88;6311843;22;45394;-74
2023/10/09 03:01:42;;;;;;;;;13.25;11.25;;;;;18.23;73.74;101788.16;6311941;22;45263;-74
2023/10/09 03:04:13;;;;;;;;;12.00;9.25;;;;;18.07;73.90;101769.09;6340399;22;45360;-74
2023/10/09 03:06:43;;;;;;;;;11.00;10.00;;;;;18.24;73.99;101804.31;6340726;22;45434;-73
2023/10/09 03:09:19;;;;;;;;;11.50;9.25;;;;;18.03;74.23;101773.75;6310409;22;45370;-73
2023/10/09 03:12:12;;;;;;;;;12.00;10.75;;;;;18.29;73.71;101823.88;6340378;22;45303;-73
2023/10/09 03:14:42;;;;;;;;;10.25;10.25;;;;;18.13;74.01;101793.97;6338559;22;46809;-74
2023/10/09 03:17:11;;;;;;;;;9.50;9.00;;;;;18.25;74.00;101837.59;6312057;22;45216;-74
2023/10/09 03:19:43;;;;;;;;;9.50;9.00;;;;;18.01;73.84;101799.06;6340864;22;45268;-73
2023/10/09 03:22:11;;;;;;;;;11.75;10.00;;;;;17.94;73.99;101784.97;6312159;22;45558;-74
2023/10/09 03:24:38;;;;;;;;;10.50;10.50;;;;;17.86;74.43;101787.13;6338086;22;47293;-74
2023/10/09 03:27:09;;;;;;;;;9.75;9.50;;;;;17.89;74.47;101787.03;6312474;22;45317;-74
2023/10/09 03:29:48;;;;;;;;;11.00;10.50;;;;;17.87;74.18;101786.22;6340581;22;45260;-74
2023/10/09 03:32:24;;;;;;;;;10.00;9.00;;;;;17.88;74.63;101790.69;6311428;22;45407;-74
2023/10/09 03:34:51;;;;;;;;;10.75;10.75;;;;;17.81;74.34;101781.06;6299155;22;47770;-73
2023/10/09 03:37:33;;;;;;;;;13.00;9.75;;;;;17.73;74.72;101768.81;6311448;22;45430;-74
2023/10/09 03:39:59;;;;;;;;;8.00;8.00;;;;;17.75;74.81;101772.31;6340635;22;45397;-73
2023/10/09 03:42:26;;;;;;;;;13.50;10.25;;;;;17.97;75.09;101811.84;6312204;22;45427;-74
2023/10/09 03:44:53;;;;;;;;;7.75;6.75;;;;;17.94;74.69;101815.59;6337303;22;48003;-74
2023/10/09 03:47:22;;;;;;;;;6.50;5.75;;;;;17.77;75.13;101788.44;6340546;22;45473;-74
2023/10/09 03:50:05;;;;;;;;;10.75;10.00;;;;;17.71;74.83;101794.13;6312243;22;45308;-73
2023/10/09 03:52:35;;;;;;;;;12.25;10.75;;;;;17.64;75.08;101771.03;6311965;22;45325;-73
2023/10/09 03:55:10;;;;;;;;;11.75;10.00;;;;;17.62;75.03;101771.13;6310753;22;47864;-73
2023/10/09 03:57:36;;;;;;;;;11.50;10.00;;;;;17.57;75.05;101773.16;6339498;22;45356;-73
2023/10/09 04:00:13;;;;;;;;;12.25;9.75;;;;;17.80;75.12;101818.00;6338436;22;45454;-73
2023/10/09 04:02:41;;;;;;;;;8.50;7.25;;;;;17.82;75.09;101812.53;6339330;22;45734;-74
2023/10/09 04:05:08;;;;;;;;;10.25;10.25;;;;;17.84;75.38;101825.03;6338005;22;47525;-74
2023/10/09 04:07:33;;;;;;;;;8.50;8.50;;;;;17.53;75.29;101774.25;6338449;22;45389;-73
2023/10/09 04:10:32;;;;;;;;;10.00;10.00;;;;;17.90;75.35;101845.50;6340752;22;45677;-74
2023/10/09 04:12:49;;;;;;;;;10.75;8.25;;;;;17.69;75.47;101813.13;6339864;22;45349;-74
2023/10/09 04:15:15;;;;;;;;;12.00;11.00;;;;;17.54;75.39;101790.38;6311580;22;48093;-74
2023/10/09 04:17:43;;;;;;;;;15.00;12.75;;;;;17.54;75.29;101792.19;6338293;22;45310;-73
2023/10/09 04:20:47;;;;;;;;;13.00;13.00;;;;;17.43;75.23;101776.47;6312292;22;45367;-74
2023/10/09 04:23:08;;;;;;;;;10.00;9.25;;;;;17.58;75.98;101801.91;6339397;22;45276;-74
2023/10/09 04:25:45;;;;;;;;;13.00;12.50;;;;;17.83;76.02;101844.00;6311037;22;47477;-73
2023/10/09 04:30:42;;;;;;;;;9.50;8.75;;;;;17.70;75.68;101822.06;6339528;22;45355;-74
2023/10/09 04:33:18;;;;;;;;;13.00;10.00;;;;;17.42;76.09;101769.31;6339977;22;45241;-74
2023/10/09 04:36:12;;;;;;;;;12.50;10.75;;;;;17.46;75.73;101786.25;6311516;22;47513;-73
2023/10/09 04:38:34;;;;;;;;;11.00;11.00;;;;;17.73;75.97;101830.03;6338458;22;45597;-73
2023/10/09 04:40:59;;;;;;;;;10.50;10.50;;;;;17.37;76.23;101766.84;6312149;22;45512;-73
2023/10/09 04:43:26;;;;;;;;;12.00;11.00;;;;;17.55;75.93;101799.34;6311236;22;45325;-74
2023/10/09 04:46:07;;;;;;;;;12.75;12.00;;;;;17.63;76.15;101816.06;6337963;22;47524;-73
2023/10/09 04:48:33;;;;;;;;;12.00;12.00;;;;;17.53;76.24;101799.41;6340286;22;45319;-73
2023/10/09 04:54:12;;;;;;;;;4.25;4.25;;;;;17.52;76.26;101796.78;6339779;22;45461;-73
2023/10/09 04:56:55;;;;;;;;;12.00;11.00;;;;;17.68;76.47;101830.25;6311096;22;48243;-74
2023/10/09 04:59:24;;;;;;;;;14.25;13.00;;;;;17.43;76.31;101798.06;6340041;22;45415;-73
2023/10/09 05:01:58;;;;;;;;;12.00;12.00;;;;;17.66;76.64;101831.25;6337779;22;45355;-74
2023/10/09 05:04:47;;;;;;;;;12.25;10.25;;;;;17.33;76.57;101781.41;6310758;22;45498;-73
2023/10/09 05:10:16;;;;;;;;;17.00;16.00;;;;;17.25;76.47;101770.06;6301274;22;45232;-73
2023/10/09 05:13:06;;;;;;;;;16.25;13.00;;;;;17.51;76.77;101822.03;6311120;22;45400;-73
2023/10/09 05:15:34;;;;;;;;;13.00;12.00;;;;;17.40;77.00;101809.88;6311058;22;45306;-73
2023/10/09 05:18:09;;;;;;;;;14.00;12.75;;;;;17.35;76.55;101811.88;6339359;22;45536;-73
2023/10/09 05:23:25;;;;;;;;;12.50;12.50;;;;;17.33;76.95;101815.63;6339501;22;45500;-73
2023/10/09 05:25:55;;;;;;;;;13.50;12.75;;;;;17.35;77.21;101822.69;6338023;22;45578;-73
2023/10/09 05:28:48;;;;;;;;;14.50;11.50;;;;;17.27;76.89;101805.09;6339741;22;46268;-73
2023/10/09 05:34:09;;;;;;;;;14.50;14.00;;;;;17.29;77.04;101817.56;6338558;22;45337;-73
2023/10/09 05:36:37;;;;;;;;;14.75;13.75;;;;;17.17;77.01;101793.81;6339977;22;45374;-74
2023/10/09 05:39:22;;;;;;;;;17.75;14.50;;;;;17.44;77.27;101836.72;6312566;22;47669;-73
2023/10/09 05:42:08;;;;;;;;;17.00;15.25;;;;;17.22;77.61;101797.19;6312292;22;45461;-73
2023/10/09 05:46:07;;;;;;;;;13.75;12.75;;;;;17.17;77.24;101799.19;6340458;22;45292;-73
2023/10/09 06:07:13;;;;;;;;;14.75;13.25;;;;;17.30;77.99;101840.91;6339993;22;45302;-73
2023/10/09 06:09:58;;;;;;;;;19.25;19.25;;;;;17.16;77.67;101813.66;6340082;22;45283;-73
2023/10/09 06:14:58;;;;;;;;;18.75;14.50;;;;;17.33;78.20;101837.22;6339990;22;45526;-74
2023/10/09 06:17:31;;;;;;;;;18.50;17.00;;;;;17.43;77.74;101851.19;6312393;22;45263;-73
2023/10/09 06:20:07;;;;;;;;;19.75;18.00;;;;;17.23;77.82;101831.31;6340806;22;45551;-74
2023/10/09 06:22:58;;;;;;;;;21.50;19.00;;;;;17.21;77.84;101817.91;6338593;22;47142;-73
2023/10/09 06:25:27;;;;;;;;;19.75;19.25;;;;;17.19;78.05;101810.81;6339450;22;45617;-73
2023/10/09 06:33:04;;;;;;;;;12.25;12.25;;;;;17.45;78.35;101863.66;6338106;22;45407;-71
2023/10/09 06:35:35;;;;;;;;;19.50;17.25;;;;;17.48;78.16;101873.47;6340863;22;45519;-70
2023/10/09 06:45:57;;;;;;;;;18.00;17.25;;;;;17.34;78.56;101858.72;6339025;22;45427;-72
2023/10/09 06:59:24;;;;;;;;;21.00;20.25;;;;;17.43;78.85;101873.66;6295597;22;45393;-71
2023/10/09 07:07:24;;;;;;;;;19.25;18.25;;;;;17.31;78.74;101852.59;6339166;22;45503;-72
2023/10/09 07:12:46;;;;;;;;;18.00;17.25;;;;;17.25;79.14;101836.66;6338478;22;45548;-72
2023/10/09 07:19:00;;;;;;;;;;;;;;;;;;;;;
2023/10/09 07:21:31;;;;;;;;;19.50;18.25;;;;;17.56;78.87;101895.59;6331256;22;69417;-69
2023/10/09 07:23:58;;;;;;;;;23.50;22.00;;;;;17.38;79.56;101860.34;6338552;22;45692;-70
2023/10/09 07:26:36;;;;;;;;;22.75;21.75;;;;;17.58;79.74;101893.69;6338181;22;45309;-70
2023/10/09 07:29:16;;;;;;;;;27.50;26.50;;;;;17.62;79.61;101906.09;6338526;22;45259;-66
2023/10/09 07:31:45;;;;;;;;;25.75;23.75;;;;;17.64;79.97;101897.94;6336721;22;45722;-69
2023/10/09 07:36:56;;;;;;;;;26.50;25.50;;;;;17.69;80.11;101912.13;6339176;22;45335;-68
2023/10/09 07:39:22;;;;;;;;;24.25;22.75;;;;;17.68;79.69;101911.25;6339888;22;45191;-68
2023/10/09 07:42:15;;;;;;;;;26.75;23.50;;;;;17.72;79.94;101912.84;6338603;22;45419;-68
2023/10/09 07:44:46;;;;;;;;;25.00;24.00;;;;;17.63;80.27;101894.38;6309761;22;45628;-68
2023/10/09 07:47:19;;;;;;;;;25.25;24.25;;;;;17.69;79.70;101902.22;6330695;22;45771;-68
2023/10/09 07:49:53;;;;;;;;;25.25;21.75;;;;;17.74;79.86;101908.28;6338078;22;45464;-68
2023/10/09 07:52:21;;;;;;;;;21.25;18.25;;;;;17.77;79.64;101918.97;6337950;22;45297;-68
2023/10/09 07:54:52;;;;;;;;;24.75;22.00;;;;;17.80;79.69;101919.75;6339405;22;45357;-69
2023/10/09 07:57:25;;;;;;;;;23.75;20.75;;;;;17.51;79.68;101873.31;6338417;22;45540;-70
2023/10/09 08:01:06;;;;;;;;;22.75;22.50;;;;;17.86;79.83;101924.88;6337832;22;45297;-70
2023/10/09 08:02:47;;;;;;;;;28.25;22.75;;;;;17.89;79.68;101932.88;6316740;22;45272;-70
2023/10/09 08:05:19;;;;;;;;;25.25;21.50;;;;;17.84;79.32;101918.66;6338778;22;45349;-70
2023/10/09 08:08:04;;;;;;;;;24.50;23.00;;;;;17.82;79.75;101909.78;6339728;22;46317;-70
2023/10/09 08:12:57;;;;;;;;;20.50;19.50;;;;;17.94;79.45;101933.56;6339860;22;45412;-69
2023/10/09 08:15:34;;;;;;;;;24.50;20.50;;;;;17.96;79.23;101937.09;6311086;22;45667;-67
2023/10/09 08:18:09;;;;;;;;;19.00;17.50;;;;;17.96;79.12;101931.69;6310470;22;47017;-67
2023/10/09 08:23:28;;;;;;;;;17.25;16.00;;;;;17.98;79.27;101929.78;6338774;22;45370;-72
2023/10/09 08:26:12;;;;;;;;;22.25;21.00;;;;;18.00;79.02;101927.03;6336113;22;45399;-68
2023/10/09 08:28:42;;;;;;;;;21.00;17.00;;;;;18.07;79.17;101934.75;6337945;22;47213;-68
2023/10/09 08:31:34;;;;;;;;;23.25;19.25;;;;;18.08;78.63;101924.84;6338548;22;45261;-69
2023/10/09 08:34:01;;;;;;;;;19.75;17.00;;;;;18.18;78.64;101941.53;6338131;22;45444;-69
2023/10/09 08:36:36;;;;;;;;;18.50;16.75;;;;;18.20;79.14;101928.81;6310968;22;45533;-68
2023/10/09 08:39:25;;;;;;;;;22.75;18.25;;;;;18.24;78.54;101931.31;6338779;22;45803;-69
2023/10/09 08:41:52;;;;;;;;;17.25;15.50;;;;;18.30;78.74;101935.56;6309235;22;45399;-68
2023/10/09 08:44:22;;;;;;;;;19.50;16.25;;;;;18.38;78.07;101940.63;6336332;22;45378;-69
2023/10/09 08:46:50;;;;;;;;;17.00;17.00;;;;;18.41;77.93;101937.75;6309274;22;45547;-69
2023/10/09 08:49:16;;;;;;;;;19.00;15.50;;;;;18.52;77.56;101944.41;6309669;22;46039;-72
2023/10/09 08:51:42;;;;;;;;;10.25;9.25;;;;;18.59;77.99;101953.09;6338453;22;45418;-69
2023/10/09 08:54:11;;;;;;;;;19.25;16.00;;;;;18.64;77.32;101956.50;6338695;22;45390;-68
2023/10/09 08:56:39;;;;;;;;;19.50;17.00;;;;;18.69;77.52;101945.44;6337563;22;45337;-68
2023/10/09 08:59:05;;;;;;;;;15.75;15.25;;;;;18.82;77.21;101953.88;6338493;22;46455;-71
2023/10/09 09:01:32;;;;;;;;;17.50;16.75;;;;;18.83;76.95;101945.72;6338247;22;45368;-69
2023/10/09 09:03:58;;;;;;;;;18.00;14.75;;;;;18.95;76.91;101957.75;6336041;22;45242;-68
2023/10/09 09:06:23;;;;;;;;;22.00;17.00;;;;;19.00;77.77;101955.72;6337749;22;45457;-68
2023/10/09 09:08:54;;;;;;;;;15.00;13.75;;;;;18.99;77.66;101940.41;6337344;22;49898;-68
2023/10/09 09:11:23;;;;;;;;;16.25;15.50;;;;;19.10;76.15;101956.16;6335177;22;45286;-68
2023/10/09 09:14:12;;;;;;;;;17.50;14.00;;;;;19.14;75.98;101946.91;6335583;22;45331;-68
2023/10/09 09:16:44;;;;;;;;;16.50;16.25;;;;;19.27;75.33;101954.44;6335799;22;45528;-68
2023/10/09 09:21:43;;;;;;;;;15.25;14.25;;;;;19.44;74.80;101951.75;6336643;22;45283;-69
2023/10/09 09:27:09;;;;;;;;;19.50;16.50;;;;;19.59;73.57;101950.97;6336783;22;45439;-68
2023/10/09 09:29:37;;;;;;;;;14.00;14.00;;;;;19.69;72.64;101947.78;6336762;22;45294;-68
2023/10/09 09:32:23;;;;;;;;;15.50;13.75;;;;;19.68;72.86;101932.47;6337935;22;45328;-68
2023/10/09 09:35:04;;;;;;;;;16.50;13.00;;;;;19.83;72.64;101948.00;6337184;22;45339;-68
2023/10/09 09:37:33;;;;;;;;;16.25;15.25;;;;;19.89;71.55;101957.63;6336598;22;45314;-68
2023/10/09 09:40:00;;;;;;;;;16.50;16.00;;;;;19.93;70.98;101953.78;6334920;22;45510;-68
2023/10/09 09:42:27;;;;;;;;;19.25;16.00;;;;;19.98;71.72;101952.59;6333207;22;45387;-68
2023/10/09 09:44:55;;;;;;;;;13.75;11.50;;;;;19.96;71.20;101943.69;6336607;22;45343;-68
2023/10/09 09:47:27;;;;;;;;;15.75;13.50;;;;;20.05;71.12;101944.16;6336922;22;45376;-68
2023/10/09 09:49:59;;;;;;;;;13.75;13.25;;;;;20.11;71.00;101950.13;6337289;22;45348;-68
2023/10/09 09:52:40;;;;;;;;;16.75;13.50;;;;;20.14;70.31;101941.81;6305634;22;45362;-68
2023/10/09 09:55:22;;;;;;;;;13.00;12.25;;;;;20.18;69.59;101937.13;6334599;22;45408;-68
2023/10/09 09:57:51;;;;;;;;;12.75;11.00;;;;;20.21;69.07;101926.09;6335453;22;45651;-68
2023/10/09 10:00:30;;;;;;;;;13.00;9.50;;;;;20.13;68.41;101915.69;6337548;22;45958;-68
2023/10/09 10:03:36;;;;;;;;;11.00;11.00;;;;;20.22;69.06;101922.44;6335720;22;45373;-68
2023/10/09 10:06:09;;;;;;;;;13.25;11.00;;;;;20.47;68.70;101945.50;6230565;22;45801;-67
2023/10/09 10:08:35;;;;;;;;;12.00;10.50;;;;;20.48;68.17;101934.56;6308250;22;45328;-68
2023/10/09 10:11:13;;;;;;;;;9.00;9.00;;;;;20.60;66.33;101938.44;6336330;22;45392;-68
2023/10/09 10:13:42;;;;;;;;;11.25;10.50;;;;;20.75;65.75;101946.69;6334994;22;45303;-68
2023/10/09 10:16:12;;;;;;;;;10.25;8.25;;;;;20.84;66.31;101947.03;6335349;22;45468;-68
2023/10/09 10:18:56;;;;;;;;;9.00;9.00;;;;;20.87;65.82;101937.88;6338370;22;45258;-68
2023/10/09 10:22:01;;;;;;;;;9.25;8.00;;;;;20.94;64.14;101935.69;6309480;22;46026;-68
2023/10/09 10:24:51;;;;;;;;;9.00;9.00;;;;;21.01;62.68;101928.94;6331652;22;45600;-71
2023/10/09 10:32:54;;;;;;;;;5.00;5.00;;;;;21.23;60.53;101937.59;6339161;22;45489;-69
2023/10/09 10:35:32;;;;;;;;;6.75;6.00;;;;;21.22;58.40;101924.97;6336290;22;45250;-68
2023/10/09 10:38:15;;;;;;;;;7.00;5.00;;;;;21.23;59.32;101931.25;6338536;22;45551;-68
2023/10/09 10:40:46;;;;;;;;;5.00;5.00;;;;;21.20;60.18;101924.19;6312156;22;45741;-72
2023/10/09 10:49:15;;;;;;;;;5.00;4.75;;;;;21.34;56.91;101939.66;6338625;22;45297;-69
2023/10/09 10:51:41;;;;;;;;;10.00;6.00;;;;;21.45;57.37;101930.88;6338389;22;45283;-69
2023/10/09 10:57:28;;;;;;;;;7.00;6.00;;;;;21.64;56.45;101912.53;6241937;22;45793;-69
2023/10/09 11:01:00;;;;;;;;;5.00;5.00;;;;;21.75;56.32;101916.44;6215804;22;45592;-69
2023/10/09 11:03:13;;;;;;;;;7.50;5.00;;;;;21.82;57.57;101915.97;6320429;22;45281;-69
2023/10/09 11:05:42;;;;;;;;;8.25;7.00;;;;;21.87;56.82;101920.25;6336604;22;46027;-69
2023/10/09 11:08:10;;;;;;;;;5.25;5.25;;;;;21.92;57.50;101919.00;6310208;22;45358;-69
2023/10/09 11:10:49;;;;;;;;;8.00;8.00;;;;;21.95;56.65;101916.09;6338456;22;45304;-68
2023/10/09 11:13:50;;;;;;;;;6.00;6.00;;;;;22.03;57.24;101921.06;6328893;22;45805;-70
2023/10/09 11:19:13;;;;;;;;;5.75;4.00;;;;;22.10;57.05;101914.28;6335864;22;45423;-68
2023/10/09 11:21:42;;;;;;;;;4.75;4.75;;;;;22.19;57.61;101916.41;6335920;22;45315;-68
2023/10/09 11:27:06;;;;;;;;;7.00;7.00;;;;;22.23;56.80;101894.47;6313248;22;45911;-68
2023/10/09 11:32:18;;;;;;;;;7.75;7.00;;;;;22.42;56.63;101908.69;6333694;22;45569;-68
2023/10/09 11:34:51;;;;;;;;;5.00;5.00;;;;;22.43;55.00;101913.13;6330977;22;45484;-67
2023/10/09 11:40:00;;;;;;;;;8.25;6.00;;;;;22.53;55.59;101905.25;6334646;22;45615;-68
2023/10/09 11:45:24;;;;;;;;;7.00;5.50;;;;;22.62;53.41;101895.63;6329982;22;45593;-66
2023/10/09 11:47:56;;;;;;;;;5.75;5.00;;;;;22.70;53.37;101896.00;6333719;22;45853;-70
2023/10/09 11:50:51;;;;;;;;;7.50;6.50;;;;;22.73;52.56;101893.94;6333380;22;45467;-70
2023/10/09 11:53:19;;;;;;;;;7.25;5.75;;;;;22.78;52.07;101888.19;6333841;22;45315;-70
2023/10/09 11:55:48;;;;;;;;;7.75;6.00;;;;;22.82;52.51;101878.88;6333599;22;45424;-70
2023/10/09 11:58:23;;;;;;;;;7.00;6.00;;;;;22.98;51.63;101888.72;6305046;22;45612;-73
2023/10/09 12:00:56;;;;;;;;;6.25;6.25;;;;;23.01;51.28;101885.81;6329606;22;45798;-74
2023/10/09 12:03:28;;;;;;;;;6.00;6.00;;;;;23.05;49.74;101882.75;6332145;22;45453;-73
2023/10/09 12:05:56;;;;;;;;;7.50;5.00;;;;;23.14;50.75;101881.31;6333454;22;45451;-73
2023/10/09 12:08:22;;;;;;;;;6.00;6.00;;;;;23.25;49.84;101876.00;6333176;22;45636;-71
2023/10/09 12:10:48;;;;;;;;;6.50;5.50;;;;;23.23;49.98;101864.34;6333176;22;45396;-71
2023/10/09 12:13:15;;;;;;;;;6.00;5.25;;;;;23.31;49.02;101872.00;6304170;22;45427;-71
2023/10/09 12:15:41;;;;;;;;;6.00;5.25;;;;;23.34;49.13;101870.88;6332873;22;45708;-72
2023/10/09 12:18:14;;;;;;;;;7.00;7.00;;;;;23.30;48.89;101848.44;6334189;22;46095;-72
2023/10/09 12:20:41;;;;;;;;;5.25;5.00;;;;;23.44;49.04;101859.28;6333039;22;45549;-72
2023/10/09 12:23:06;;;;;;;;;7.00;6.00;;;;;23.47;50.56;101863.63;6332504;22;45643;-72
2023/10/09 12:25:35;;;;;;;;;9.25;7.00;;;;;23.52;50.42;101857.84;6332132;22;45620;-72
2023/10/09 12:28:02;;;;;;;;;4.00;3.00;;;;;23.56;50.35;101857.53;6332909;22;46393;-72
2023/10/09 12:30:37;;;;;;;;;6.00;6.00;;;;;23.55;50.11;101846.75;6333356;22;45597;-72
2023/10/09 12:33:03;;;;;;;;;10.25;7.00;;;;;23.60;49.68;101850.03;6331983;22;45944;-71
2023/10/09 12:35:33;;;;;;;;;6.50;5.75;;;;;23.66;49.49;101846.88;6332568;22;45821;-72
2023/10/09 12:37:59;;;;;;;;;6.00;5.00;;;;;23.69;49.76;101841.22;6331361;22;45871;-72
2023/10/09 12:40:24;;;;;;;;;6.75;6.25;;;;;23.67;48.28;101835.88;6331364;22;45524;-72
2023/10/09 12:42:55;;;;;;;;;4.75;4.75;;;;;23.73;49.21;101839.13;6333048;22;45469;-71
2023/10/09 12:45:26;;;;;;;;;8.25;7.00;;;;;23.75;49.06;101838.03;6304458;22;45631;-71
2023/10/09 12:47:58;;;;;;;;;6.75;6.50;;;;;23.75;48.05;101834.44;6305596;22;48593;-71
2023/10/09 12:50:33;;;;;;;;;7.50;5.50;;;;;23.75;48.47;101827.13;6333978;22;45386;-71
2023/10/09 12:53:02;;;;;;;;;9.50;5.50;;;;;23.80;47.59;101816.75;6334034;22;45825;-72
2023/10/09 12:55:31;;;;;;;;;9.50;6.50;;;;;23.84;47.10;101821.06;6332689;22;45420;-71
2023/10/09 12:58:00;;;;;;;;;7.50;6.25;;;;;23.87;47.78;101822.69;6332762;22;47144;-71
2023/10/09 13:00:26;;;;;;;;;6.75;6.75;;;;;23.89;46.92;101818.00;6305630;22;45559;-71
2023/10/09 13:02:52;;;;;;;;;6.50;5.25;;;;;23.88;47.92;101816.25;6333349;22;45457;-71
2023/10/09 13:05:26;;;;;;;;;7.75;7.00;;;;;23.88;46.97;101810.81;6331223;22;46411;-71
2023/10/09 13:07:53;;;;;;;;;7.00;6.25;;;;;23.92;46.45;101816.91;6332798;22;46933;-71
2023/10/09 13:10:19;;;;;;;;;4.50;4.50;;;;;23.82;46.36;101789.44;6334185;22;45633;-71
2023/10/09 13:12:44;;;;;;;;;7.00;6.25;;;;;23.92;45.55;101800.53;6331054;22;45331;-71
2023/10/09 13:15:11;;;;;;;;;5.00;5.00;;;;;23.94;45.48;101802.19;6333179;22;45381;-71
2023/10/09 13:17:37;;;;;;;;;7.00;5.75;;;;;23.98;43.28;101814.59;6330427;22;45698;-76
2023/10/09 13:20:12;;;;;;;;;5.75;4.75;;;;;24.00;44.56;101811.78;6332472;22;45715;-71
2023/10/09 13:22:42;;;;;;;;;6.00;5.50;;;;;23.98;43.67;101800.13;6304476;22;45764;-82
2023/10/09 13:25:24;;;;;;;;;5.00;4.25;;;;;24.00;43.04;101806.31;6327954;22;45465;-72
2023/10/09 13:27:50;;;;;;;;;9.25;8.00;;;;;24.01;43.24;101802.63;6330085;22;45515;-71
2023/10/09 13:30:23;;;;;;;;;4.75;4.00;;;;;23.99;41.25;101796.38;6331937;22;45691;-71
2023/10/09 13:32:49;;;;;;;;;2.50;2.50;;;;;24.00;43.44;101800.88;6331305;22;45441;-71
2023/10/09 13:35:19;;;;;;;;;4.50;3.75;;;;;24.02;42.86;101796.16;6333329;22;45777;-71
2023/10/09 13:37:56;;;;;;;;;6.50;5.50;;;;;24.11;42.75;101808.28;6332323;22;45576;-71
2023/10/09 13:40:28;;;;;;;;;4.25;4.00;;;;;24.02;43.42;101785.25;6331997;22;45621;-71
2023/10/09 13:42:58;;;;;;;;;9.25;6.75;;;;;24.08;42.29;101793.00;6331383;22;45812;-71
2023/10/09 13:45:28;;;;;;;;;6.00;4.00;;;;;24.13;43.13;101799.00;6331574;22;45785;-71
2023/10/09 13:47:57;;;;;;;;;6.00;6.00;;;;;24.12;43.82;101799.97;6332243;22;46141;-71
2023/10/09 13:50:32;;;;;;;;;7.50;5.00;;;;;24.14;41.95;101799.84;6332405;22;45632;-71
2023/10/09 13:52:58;;;;;;;;;6.00;4.75;;;;;24.07;42.66;101790.38;6331650;22;45661;-71
2023/10/09 13:55:31;;;;;;;;;7.00;5.50;;;;;24.07;43.77;101783.06;6332434;22;45685;-71
2023/10/09 13:57:57;;;;;;;;;6.25;3.75;;;;;24.10;44.32;101790.16;6331892;22;46287;-71
2023/10/09 14:00:41;;;;;;;;;6.25;5.00;;;;;24.10;44.19;101777.38;6334617;22;45768;-71
2023/10/09 14:03:13;;;;;;;;;6.00;5.00;;;;;24.16;45.71;101787.84;6334298;22;45953;-71
2023/10/09 14:05:54;;;;;;;;;4.75;4.25;;;;;24.17;45.37;101777.81;6334686;22;45311;-71
2023/10/09 14:08:22;;;;;;;;;4.25;4.25;;;;;24.18;46.77;101776.84;6335716;22;45685;-71
2023/10/09 14:10:49;;;;;;;;;7.50;6.25;;;;;24.18;45.57;101783.16;6334155;22;45495;-72